createdAt,value
2022-08-10T00:00:45.673Z,50.97
2022-08-10T00:01:45.835Z,50.97
2022-08-10T00:02:46.026Z,50.97
2022-08-10T00:03:45.783Z,51.55
2022-08-10T00:04:45.821Z,51.45
2022-08-10T00:05:52.547Z,50.87
2022-08-10T00:06:45.888Z,51.65
2022-08-10T00:07:45.929Z,51.65
2022-08-10T00:08:45.967Z,51.55
2022-08-10T00:09:50.746Z,51.65
2022-08-10T00:12:54.340Z,51.65
2022-08-10T00:13:46.138Z,51.36
2022-08-10T00:14:46.173Z,51.45
2022-08-10T00:15:53.739Z,51.55
2022-08-10T00:16:46.557Z,51.55
2022-08-10T00:17:46.288Z,51.65
2022-08-10T00:18:46.343Z,51.36
2022-08-10T00:20:03.082Z,51.45
2022-08-10T00:20:46.389Z,51.45
2022-08-10T00:21:46.444Z,51.55
2022-08-10T00:22:57.307Z,51.55
2022-08-10T00:23:46.501Z,51.45
2022-08-10T00:24:46.538Z,51.55
2022-08-10T00:25:46.571Z,51.55
2022-08-10T00:27:51.742Z,51.36
2022-08-10T00:28:01.679Z,51.36
2022-08-10T00:30:46.744Z,51.07
2022-08-10T00:31:58.537Z,51.26
2022-08-10T00:32:46.836Z,51.17
2022-08-10T00:33:46.850Z,51.17
2022-08-10T00:34:46.884Z,51.55
2022-08-10T00:35:47.173Z,51.45
2022-08-10T00:36:47.116Z,51.45
2022-08-10T00:37:51.670Z,51.75
2022-08-10T00:38:47.029Z,51.55
2022-08-10T00:39:47.128Z,51.55
2022-08-10T00:40:47.102Z,51.55
2022-08-10T00:42:01.792Z,51.65
2022-08-10T00:42:47.173Z,51.75
2022-08-10T00:43:47.214Z,51.45
2022-08-10T00:44:47.239Z,51.55
2022-08-10T00:45:47.278Z,51.75
2022-08-10T00:46:47.315Z,51.55
2022-08-10T00:47:47.352Z,51.55
2022-08-10T00:48:47.681Z,51.55
2022-08-10T00:49:47.422Z,51.65
2022-08-10T00:50:47.461Z,51.55
2022-08-10T00:51:48.523Z,51.65
2022-08-10T00:52:47.531Z,51.45
2022-08-10T00:53:47.564Z,51.26
2022-08-10T00:54:47.598Z,51.26
2022-08-10T00:56:35.160Z,51.75
2022-08-10T00:57:17.646Z,51.65
2022-08-10T00:57:55.218Z,51.45
2022-08-10T00:58:47.738Z,51.62
2022-08-10T00:59:59.210Z,51.75
2022-08-10T01:00:47.808Z,51.72
2022-08-10T01:02:08.598Z,51.94
2022-08-10T01:02:47.940Z,51.82
2022-08-10T01:04:40.105Z,51.72
2022-08-10T01:05:00.376Z,51.72
2022-08-10T01:05:51.675Z,51.82
2022-08-10T01:06:48.028Z,51.62
2022-08-10T01:07:48.059Z,51.62
2022-08-10T01:08:48.394Z,51.92
2022-08-10T01:09:57.218Z,52.01
2022-08-10T01:10:48.164Z,51.92
2022-08-10T01:12:39.701Z,51.92
2022-08-10T01:12:48.473Z,51.92
2022-08-10T01:13:48.272Z,51.75
2022-08-10T01:14:48.308Z,52.01
2022-08-10T01:15:48.644Z,52.04
2022-08-10T01:16:48.376Z,51.92
2022-08-10T01:17:50.843Z,51.82
2022-08-10T01:18:48.448Z,51.53
2022-08-10T01:19:48.491Z,52.04
2022-08-10T01:20:48.518Z,51.92
2022-08-10T01:21:56.816Z,51.82
2022-08-10T01:22:48.590Z,51.72
2022-08-10T01:23:48.627Z,51.92
2022-08-10T01:24:48.664Z,51.62
2022-08-10T01:26:11.676Z,51.92
2022-08-10T01:26:49.255Z,51.65
2022-08-10T01:27:48.772Z,51.53
2022-08-10T01:28:49.108Z,51.75
2022-08-10T01:29:48.926Z,51.62
2022-08-10T01:30:48.879Z,51.72
2022-08-10T01:31:48.922Z,51.62
2022-08-10T01:32:48.948Z,51.53
2022-08-10T01:33:58.341Z,51.53
2022-08-10T01:34:49.015Z,51.72
2022-08-10T01:35:49.051Z,51.72
2022-08-10T01:37:52.239Z,51.72
2022-08-10T01:38:49.158Z,51.62
2022-08-10T01:39:49.353Z,51.43
2022-08-10T01:40:49.527Z,51.72
2022-08-10T01:41:49.262Z,51.72
2022-08-10T01:42:49.297Z,51.53
2022-08-10T01:43:49.336Z,52.01
2022-08-10T01:44:49.371Z,51.62
2022-08-10T01:45:49.407Z,51.62
2022-08-10T01:46:53.161Z,51.72
2022-08-10T01:47:49.478Z,51.82
2022-08-10T01:48:49.513Z,51.82
2022-08-10T01:49:49.551Z,51.92
2022-08-10T01:50:53.265Z,51.92
2022-08-10T01:51:49.617Z,51.82
2022-08-10T01:52:49.654Z,51.82
2022-08-10T01:54:49.978Z,51.82
2022-08-10T01:55:49.761Z,51.92
2022-08-10T01:56:49.799Z,51.82
2022-08-10T01:57:49.832Z,51.92
2022-08-10T01:58:49.866Z,52.01
2022-08-10T01:59:58.729Z,52.01
2022-08-10T02:00:50.038Z,52.01
2022-08-10T02:01:49.972Z,51.92
2022-08-10T02:04:50.077Z,52.01
2022-08-10T02:06:50.146Z,51.92
2022-08-10T02:07:50.434Z,52.01
2022-08-10T02:08:50.219Z,51.82
2022-08-10T02:09:50.254Z,52.01
2022-08-10T02:10:50.288Z,51.92
2022-08-10T02:12:06.317Z,52.01
2022-08-10T02:12:50.358Z,51.82
2022-08-10T02:13:50.394Z,51.82
2022-08-10T02:14:50.736Z,51.62
2022-08-10T02:16:01.884Z,51.92
2022-08-10T02:17:59.431Z,52.21
2022-08-10T02:18:50.575Z,51.92
2022-08-10T02:19:50.609Z,51.92
2022-08-10T02:20:50.643Z,51.82
2022-08-10T02:22:34.995Z,51.62
2022-08-10T02:22:51.259Z,51.92
2022-08-10T02:23:59.657Z,51.62
2022-08-10T02:24:50.782Z,52.01
2022-08-10T02:25:50.820Z,51.82
2022-08-10T02:26:50.854Z,51.82
2022-08-10T02:27:50.889Z,51.72
2022-08-10T02:28:51.226Z,51.62
2022-08-10T02:29:50.989Z,51.72
2022-08-10T02:30:50.997Z,51.72
2022-08-10T02:31:51.416Z,52.01
2022-08-10T02:32:52.948Z,51.72
2022-08-10T02:33:57.245Z,51.82
2022-08-10T02:34:51.138Z,51.62
2022-08-10T02:35:54.145Z,51.82
2022-08-10T02:36:51.209Z,51.92
2022-08-10T02:37:51.262Z,51.72
2022-08-10T02:39:51.314Z,51.62
2022-08-10T02:45:12.322Z,51.92
2022-08-10T02:45:15.318Z,51.72
2022-08-10T02:45:19.340Z,51.82
2022-08-10T02:45:19.721Z,51.92
2022-08-10T02:45:21.692Z,51.72
2022-08-10T02:45:51.526Z,51.72
2022-08-10T02:47:52.679Z,51.92
2022-08-10T02:50:51.700Z,52.01
2022-08-10T02:52:07.230Z,52.01
2022-08-10T02:52:51.779Z,51.92
2022-08-10T02:53:56.929Z,52.21
2022-08-10T02:55:51.878Z,52.01
2022-08-10T02:58:13.339Z,52.31
2022-08-10T02:58:52.284Z,52.31
2022-08-10T02:59:52.015Z,52.11
2022-08-10T03:00:52.185Z,52.01
2022-08-10T03:01:52.086Z,52.11
2022-08-10T03:03:52.163Z,51.92
2022-08-10T03:04:55.117Z,52.11
2022-08-10T03:05:52.481Z,52.21
2022-08-10T03:06:52.264Z,52.11
2022-08-10T03:07:52.300Z,52.11
2022-08-10T03:08:52.331Z,52.11
2022-08-10T03:09:52.369Z,51.72
2022-08-10T03:10:52.405Z,52.11
2022-08-10T03:12:36.420Z,52.21
2022-08-10T03:12:52.876Z,52.11
2022-08-10T03:13:52.826Z,51.92
2022-08-10T03:14:52.546Z,52.11
2022-08-10T03:15:52.585Z,52.11
2022-08-10T03:16:52.614Z,52.31
2022-08-10T03:17:57.227Z,52.11
2022-08-10T03:18:52.987Z,52.11
2022-08-10T03:20:34.806Z,52.21
2022-08-10T03:20:52.795Z,52.21
2022-08-10T03:21:52.793Z,52.11
2022-08-10T03:22:52.830Z,52.11
2022-08-10T03:23:52.865Z,51.99
2022-08-10T03:24:52.899Z,51.99
2022-08-10T03:25:54.763Z,52.01
2022-08-10T03:26:52.966Z,51.89
2022-08-10T03:27:53.002Z,52.50
2022-08-10T03:28:53.035Z,51.89
2022-08-10T03:30:29.468Z,52.01
2022-08-10T03:30:53.107Z,51.99
2022-08-10T03:31:53.144Z,52.40
2022-08-10T03:32:53.823Z,51.99
2022-08-10T03:33:53.217Z,51.99
2022-08-10T03:34:53.253Z,51.99
2022-08-10T03:36:43.889Z,52.09
2022-08-10T03:36:53.318Z,51.92
2022-08-10T03:37:55.776Z,52.19
2022-08-10T03:38:53.709Z,52.40
2022-08-10T03:39:53.484Z,52.28
2022-08-10T03:41:54.219Z,51.92
2022-08-10T03:42:53.530Z,52.57
2022-08-10T03:43:53.565Z,52.57
2022-08-10T03:44:53.903Z,52.50
2022-08-10T03:45:55.359Z,52.47
2022-08-10T03:47:53.708Z,52.67
2022-08-10T03:48:53.764Z,52.50
2022-08-10T03:49:53.789Z,52.67
2022-08-10T03:50:54.062Z,52.59
2022-08-10T03:51:53.847Z,52.09
2022-08-10T03:52:53.894Z,52.67
2022-08-10T03:54:05.127Z,52.59
2022-08-10T03:54:53.953Z,52.57
2022-08-10T03:56:29.665Z,52.19
2022-08-10T03:56:54.022Z,52.67
2022-08-10T03:57:54.310Z,52.57
2022-08-10T03:58:54.091Z,52.69
2022-08-10T03:59:54.130Z,52.67
2022-08-10T04:00:54.178Z,52.67
2022-08-10T04:02:45.681Z,52.59
2022-08-10T04:02:54.729Z,52.67
2022-08-10T04:04:13.080Z,52.37
2022-08-10T04:04:54.601Z,52.67
2022-08-10T04:05:54.339Z,52.57
2022-08-10T04:06:55.382Z,52.47
2022-08-10T04:07:54.410Z,52.57
2022-08-10T04:08:54.442Z,52.47
2022-08-10T04:09:56.430Z,52.19
2022-08-10T04:10:54.911Z,52.59
2022-08-10T04:11:54.553Z,52.57
2022-08-10T04:12:54.583Z,52.57
2022-08-10T04:13:54.619Z,52.47
2022-08-10T04:14:54.652Z,52.69
2022-08-10T04:15:54.697Z,52.57
2022-08-10T04:16:54.724Z,52.57
2022-08-10T04:18:55.048Z,51.99
2022-08-10T04:20:54.865Z,52.47
2022-08-10T04:21:54.941Z,52.57
2022-08-10T04:22:54.939Z,52.47
2022-08-10T04:23:54.973Z,52.57
2022-08-10T04:24:55.004Z,52.57
2022-08-10T04:25:55.339Z,52.57
2022-08-10T04:26:55.180Z,52.47
2022-08-10T04:27:55.119Z,52.47
2022-08-10T04:28:55.143Z,51.99
2022-08-10T04:29:55.189Z,51.99
2022-08-10T04:30:55.213Z,52.57
2022-08-10T04:32:55.296Z,52.57
2022-08-10T04:33:55.570Z,51.89
2022-08-10T04:34:55.356Z,52.47
2022-08-10T04:35:55.389Z,52.09
2022-08-10T04:36:55.426Z,52.57
2022-08-10T04:37:55.563Z,52.57
2022-08-10T04:38:55.496Z,52.57
2022-08-10T04:39:55.533Z,52.57
2022-08-10T04:41:55.858Z,52.47
2022-08-10T04:42:55.635Z,52.37
2022-08-10T04:43:55.678Z,52.57
2022-08-10T04:44:55.710Z,52.37
2022-08-10T04:45:55.799Z,52.37
2022-08-10T04:46:59.309Z,52.57
2022-08-10T04:48:00.354Z,52.57
2022-08-10T04:49:01.349Z,52.67
2022-08-10T04:49:56.992Z,52.47
2022-08-10T04:50:55.922Z,51.99
2022-08-10T04:51:55.955Z,52.57
2022-08-10T04:52:56.009Z,52.57
2022-08-10T04:54:02.865Z,52.67
2022-08-10T04:54:56.070Z,52.67
2022-08-10T04:55:56.399Z,51.89
2022-08-10T04:56:56.127Z,52.47
2022-08-10T04:57:56.162Z,52.37
2022-08-10T04:58:56.198Z,52.47
2022-08-10T04:59:56.233Z,52.47
2022-08-10T05:00:56.323Z,52.76
2022-08-10T05:02:28.468Z,52.47
2022-08-10T05:02:56.336Z,52.47
2022-08-10T05:04:34.488Z,52.31
2022-08-10T05:04:56.407Z,52.40
2022-08-10T05:05:56.444Z,52.37
2022-08-10T05:06:56.484Z,51.99
2022-08-10T05:07:56.925Z,52.28
2022-08-10T05:08:56.850Z,52.37
2022-08-10T05:10:02.606Z,51.99
2022-08-10T05:10:56.618Z,52.37
2022-08-10T05:11:56.652Z,51.99
2022-08-10T05:12:56.686Z,52.47
2022-08-10T05:14:57.030Z,52.47
2022-08-10T05:15:56.798Z,52.47
2022-08-10T05:16:56.930Z,52.47
2022-08-10T05:18:08.636Z,52.47
2022-08-10T05:18:56.903Z,52.47
2022-08-10T05:20:57.369Z,52.37
2022-08-10T05:22:57.042Z,51.70
2022-08-10T05:23:57.076Z,52.37
2022-08-10T05:24:57.115Z,52.37
2022-08-10T05:25:57.142Z,52.28
2022-08-10T05:27:09.620Z,52.28
2022-08-10T05:27:57.758Z,52.37
2022-08-10T05:28:57.249Z,52.09
2022-08-10T05:30:02.581Z,52.47
2022-08-10T05:30:57.320Z,52.47
2022-08-10T05:33:57.676Z,52.47
2022-08-10T05:34:57.467Z,52.47
2022-08-10T05:35:58.374Z,52.47
2022-08-10T05:36:57.532Z,52.37
2022-08-10T05:38:11.947Z,52.47
2022-08-10T05:39:57.998Z,52.47
2022-08-10T05:40:57.902Z,52.37
2022-08-10T05:41:58.357Z,52.37
2022-08-10T05:42:57.739Z,52.50
2022-08-10T05:43:57.774Z,52.37
2022-08-10T05:44:57.808Z,52.21
2022-08-10T05:46:16.947Z,52.37
2022-08-10T05:46:57.883Z,52.37
2022-08-10T05:48:54.049Z,52.31
2022-08-10T05:49:01.274Z,52.37
2022-08-10T05:49:57.987Z,52.37
2022-08-10T05:50:58.018Z,52.57
2022-08-10T05:51:58.063Z,52.37
2022-08-10T05:52:58.088Z,52.47
2022-08-10T05:54:02.805Z,52.28
2022-08-10T05:55:02.595Z,52.47
2022-08-10T05:55:58.201Z,51.79
2022-08-10T05:56:58.515Z,52.47
2022-08-10T05:57:58.266Z,52.09
2022-08-10T05:58:58.547Z,52.09
2022-08-10T06:00:34.552Z,52.11
2022-08-10T06:00:58.440Z,52.31
2022-08-10T06:02:34.042Z,51.72
2022-08-10T06:02:58.439Z,51.92
2022-08-10T06:03:58.492Z,52.11
2022-08-10T06:04:58.511Z,51.92
2022-08-10T06:05:58.799Z,51.82
2022-08-10T06:06:58.597Z,52.01
2022-08-10T06:07:58.620Z,51.82
2022-08-10T06:08:58.649Z,51.72
2022-08-10T06:10:00.286Z,51.62
2022-08-10T06:12:25.491Z,52.11
2022-08-10T06:12:26.405Z,52.01
2022-08-10T06:13:01.458Z,51.62
2022-08-10T06:14:03.959Z,51.62
2022-08-10T06:14:59.696Z,51.43
2022-08-10T06:15:58.999Z,51.43
2022-08-10T06:16:58.929Z,51.62
2022-08-10T06:18:02.262Z,51.62
2022-08-10T06:18:59.052Z,51.62
2022-08-10T06:19:59.095Z,51.92
2022-08-10T06:20:59.072Z,51.92
2022-08-10T06:22:01.340Z,51.62
2022-08-10T06:22:59.153Z,51.62
2022-08-10T06:23:59.479Z,51.72
2022-08-10T06:25:31.975Z,51.72
2022-08-10T06:26:10.808Z,51.72
2022-08-10T06:26:59.289Z,51.92
2022-08-10T06:27:59.320Z,52.01
2022-08-10T06:29:02.838Z,52.01
2022-08-10T06:29:59.390Z,52.01
2022-08-10T06:31:59.711Z,52.01
2022-08-10T06:32:59.496Z,51.72
2022-08-10T06:33:59.531Z,52.01
2022-08-10T06:34:59.562Z,51.82
2022-08-10T06:35:59.602Z,51.82
2022-08-10T06:36:59.646Z,51.92
2022-08-10T06:37:59.971Z,51.72
2022-08-10T06:39:23.071Z,51.72
2022-08-10T06:39:59.775Z,51.72
2022-08-10T06:40:59.773Z,52.01
2022-08-10T06:42:16.536Z,52.01
2022-08-10T06:42:59.844Z,51.92
2022-08-10T06:43:59.878Z,51.92
2022-08-10T06:45:00.245Z,51.82
2022-08-10T06:46:07.663Z,52.01
2022-08-10T06:46:59.984Z,52.01
2022-08-10T06:48:00.027Z,51.92
2022-08-10T06:49:00.078Z,52.01
2022-08-10T06:50:01.536Z,52.01
2022-08-10T06:54:00.533Z,51.92
2022-08-10T06:55:00.536Z,51.92
2022-08-10T06:56:00.406Z,52.01
2022-08-10T06:57:18.071Z,51.92
2022-08-10T06:58:00.620Z,52.01
2022-08-10T07:00:01.050Z,52.01
2022-08-10T07:02:00.518Z,51.82
2022-08-10T07:03:00.548Z,51.82
2022-08-10T07:04:00.585Z,51.53
2022-08-10T07:05:00.618Z,51.43
2022-08-10T07:06:00.657Z,51.43
2022-08-10T07:07:00.988Z,51.43
2022-08-10T07:08:00.722Z,51.43
2022-08-10T07:09:00.762Z,51.43
2022-08-10T07:10:00.794Z,51.23
2022-08-10T07:11:00.831Z,51.62
2022-08-10T07:12:07.890Z,51.72
2022-08-10T07:13:00.899Z,51.23
2022-08-10T07:14:15.859Z,51.43
2022-08-10T07:15:03.598Z,51.33
2022-08-10T07:16:01.007Z,51.53
2022-08-10T07:17:01.049Z,51.53
2022-08-10T07:18:01.074Z,51.53
2022-08-10T07:19:01.110Z,51.14
2022-08-10T07:20:01.146Z,51.53
2022-08-10T07:21:01.479Z,51.23
2022-08-10T07:22:01.212Z,51.17
2022-08-10T07:23:55.160Z,51.43
2022-08-10T07:24:01.490Z,51.33
2022-08-10T07:25:01.318Z,51.45
2022-08-10T07:26:01.444Z,51.23
2022-08-10T07:27:01.385Z,51.53
2022-08-10T07:28:02.173Z,51.33
2022-08-10T07:29:01.452Z,51.45
2022-08-10T07:30:01.486Z,51.36
2022-08-10T07:31:01.517Z,51.55
2022-08-10T07:33:01.661Z,51.45
2022-08-10T07:34:01.620Z,51.55
2022-08-10T07:35:01.908Z,51.55
2022-08-10T07:36:01.685Z,51.36
2022-08-10T07:37:01.716Z,51.55
2022-08-10T07:38:01.756Z,51.55
2022-08-10T07:39:01.785Z,51.36
2022-08-10T07:40:03.570Z,51.55
2022-08-10T07:41:01.854Z,51.36
2022-08-10T07:42:02.186Z,51.45
2022-08-10T07:43:01.917Z,51.55
2022-08-10T07:44:01.954Z,51.55
2022-08-10T07:45:02.033Z,51.65
2022-08-10T07:46:02.017Z,51.65
2022-08-10T07:47:02.052Z,51.55
2022-08-10T07:48:07.245Z,51.65
2022-08-10T07:49:02.365Z,51.55
2022-08-10T07:50:02.252Z,51.65
2022-08-10T07:51:02.190Z,51.65
2022-08-10T07:52:02.215Z,51.55
2022-08-10T07:53:02.246Z,51.65
2022-08-10T07:54:02.286Z,51.65
2022-08-10T07:55:02.315Z,51.55
2022-08-10T07:56:16.547Z,51.65
2022-08-10T07:57:02.383Z,51.55
2022-08-10T07:58:02.418Z,51.55
2022-08-10T07:59:02.447Z,51.55
2022-08-10T08:00:02.482Z,51.45
2022-08-10T08:01:02.512Z,51.55
2022-08-10T08:02:02.690Z,51.55
2022-08-10T08:03:02.979Z,51.55
2022-08-10T08:04:05.492Z,51.75
2022-08-10T08:05:02.647Z,51.75
2022-08-10T08:06:09.022Z,51.55
2022-08-10T08:07:02.711Z,51.65
2022-08-10T08:08:02.958Z,51.36
2022-08-10T08:09:02.776Z,51.07
2022-08-10T08:10:03.068Z,51.36
2022-08-10T08:11:02.975Z,51.36
2022-08-10T08:12:02.880Z,51.55
2022-08-10T08:13:02.913Z,51.45
2022-08-10T08:14:02.946Z,51.65
2022-08-10T08:16:17.052Z,51.45
2022-08-10T08:16:18.013Z,51.36
2022-08-10T08:17:03.341Z,51.36
2022-08-10T08:18:03.648Z,51.55
2022-08-10T08:19:28.585Z,51.36
2022-08-10T08:20:03.291Z,50.97
2022-08-10T08:21:03.289Z,51.55
2022-08-10T08:24:07.518Z,50.97
2022-08-10T08:24:07.660Z,50.87
2022-08-10T08:24:21.683Z,50.87
2022-08-10T08:25:03.309Z,51.55
2022-08-10T08:26:03.346Z,51.45
2022-08-10T08:27:03.384Z,51.45
2022-08-10T08:28:03.705Z,50.78
2022-08-10T08:29:04.785Z,51.17
2022-08-10T08:30:03.476Z,50.97
2022-08-10T08:31:03.502Z,50.97
2022-08-10T08:32:04.006Z,50.97
2022-08-10T08:33:03.568Z,50.87
2022-08-10T08:34:03.607Z,50.87
2022-08-10T08:35:03.889Z,50.97
2022-08-10T08:36:03.669Z,50.97
2022-08-10T08:37:03.697Z,50.87
2022-08-10T08:38:32.554Z,50.87
2022-08-10T08:39:03.768Z,50.97
2022-08-10T08:40:04.010Z,50.87
2022-08-10T08:41:03.831Z,51.07
2022-08-10T08:42:03.865Z,51.45
2022-08-10T08:43:03.899Z,50.97
2022-08-10T08:44:03.933Z,50.97
2022-08-10T08:45:03.963Z,50.97
2022-08-10T08:46:03.999Z,50.97
2022-08-10T08:47:04.029Z,50.97
2022-08-10T08:48:06.446Z,50.97
2022-08-10T08:49:04.094Z,51.07
2022-08-10T08:50:08.292Z,51.26
2022-08-10T08:51:04.163Z,51.17
2022-08-10T08:52:09.419Z,51.17
2022-08-10T08:53:12.797Z,51.26
2022-08-10T08:54:04.333Z,50.78
2022-08-10T08:55:04.552Z,51.26
2022-08-10T08:56:07.109Z,51.17
2022-08-10T08:57:04.358Z,51.17
2022-08-10T08:58:04.394Z,51.17
2022-08-10T08:59:04.459Z,50.87
2022-08-10T09:00:04.461Z,50.78
2022-08-10T09:01:04.496Z,51.17
2022-08-10T09:02:04.910Z,50.87
2022-08-10T09:03:04.558Z,51.17
2022-08-10T09:04:04.593Z,50.78
2022-08-10T09:05:04.622Z,50.58
2022-08-10T09:06:04.656Z,51.26
2022-08-10T09:07:04.730Z,51.26
2022-08-10T09:08:04.723Z,50.97
2022-08-10T09:09:04.766Z,50.87
2022-08-10T09:11:04.840Z,50.87
2022-08-10T09:12:04.856Z,50.87
2022-08-10T09:13:04.892Z,50.97
2022-08-10T09:14:04.925Z,50.97
2022-08-10T09:15:05.211Z,50.78
2022-08-10T09:16:05.037Z,50.87
2022-08-10T09:17:05.022Z,50.97
2022-08-10T09:18:05.052Z,50.97
2022-08-10T09:19:05.090Z,50.97
2022-08-10T09:20:05.128Z,50.97
2022-08-10T09:21:05.409Z,50.97
2022-08-10T09:22:17.513Z,50.97
2022-08-10T09:23:05.233Z,50.97
2022-08-10T09:24:06.283Z,50.97
2022-08-10T09:25:05.284Z,50.97
2022-08-10T09:26:05.319Z,50.97
2022-08-10T09:27:05.654Z,51.09
2022-08-10T09:28:05.384Z,50.97
2022-08-10T09:29:12.438Z,50.97
2022-08-10T09:30:05.455Z,51.39
2022-08-10T09:31:22.824Z,51.07
2022-08-10T09:36:16.506Z,51.19
2022-08-10T09:36:19.797Z,51.07
2022-08-10T09:36:20.912Z,51.07
2022-08-10T09:36:22.618Z,50.87
2022-08-10T09:36:27.870Z,51.09
2022-08-10T09:37:05.697Z,50.97
2022-08-10T09:38:05.715Z,50.90
2022-08-10T09:39:05.811Z,50.87
2022-08-10T09:40:57.151Z,51.19
2022-08-10T09:41:12.802Z,51.09
2022-08-10T09:42:05.846Z,50.87
2022-08-10T09:43:24.954Z,50.87
2022-08-10T09:44:05.921Z,51.19
2022-08-10T09:45:05.948Z,51.19
2022-08-10T09:46:06.053Z,51.29
2022-08-10T09:47:06.316Z,51.09
2022-08-10T09:48:06.044Z,51.29
2022-08-10T09:49:06.077Z,51.19
2022-08-10T09:50:06.110Z,51.19
2022-08-10T09:52:06.175Z,51.19
2022-08-10T09:53:06.210Z,50.99
2022-08-10T09:54:06.554Z,50.99
2022-08-10T09:55:06.282Z,51.09
2022-08-10T09:56:19.143Z,51.29
2022-08-10T09:57:44.516Z,51.09
2022-08-10T09:58:06.380Z,50.99
2022-08-10T09:59:27.163Z,51.09
2022-08-10T10:00:06.444Z,50.99
2022-08-10T10:01:06.477Z,51.09
2022-08-10T10:02:06.509Z,50.90
2022-08-10T10:03:06.740Z,51.29
2022-08-10T10:04:06.573Z,51.19
2022-08-10T10:05:06.611Z,51.09
2022-08-10T10:06:06.645Z,51.19
2022-08-10T10:07:06.926Z,51.09
2022-08-10T10:08:06.710Z,50.90
2022-08-10T10:09:10.332Z,50.90
2022-08-10T10:10:06.774Z,51.19
2022-08-10T10:11:06.814Z,50.80
2022-08-10T10:12:09.879Z,50.99
2022-08-10T10:13:06.873Z,51.09
2022-08-10T10:14:11.860Z,51.09
2022-08-10T10:15:06.943Z,51.19
2022-08-10T10:16:06.974Z,51.29
2022-08-10T10:17:07.005Z,50.70
2022-08-10T10:18:07.042Z,50.99
2022-08-10T10:19:07.074Z,51.29
2022-08-10T10:20:07.119Z,50.90
2022-08-10T10:21:07.448Z,50.99
2022-08-10T10:22:07.173Z,50.90
2022-08-10T10:23:07.211Z,51.29
2022-08-10T10:24:22.202Z,50.80
2022-08-10T10:25:19.972Z,51.29
2022-08-10T10:26:15.921Z,51.09
2022-08-10T10:27:16.535Z,51.19
2022-08-10T10:28:07.369Z,51.58
2022-08-10T10:29:30.695Z,51.19
2022-08-10T10:30:09.449Z,50.99
2022-08-10T10:31:16.371Z,50.99
2022-08-10T10:32:07.516Z,50.90
2022-08-10T10:33:07.837Z,50.90
2022-08-10T10:34:07.578Z,50.90
2022-08-10T10:35:07.603Z,51.19
2022-08-10T10:37:07.666Z,50.99
2022-08-10T10:38:07.701Z,50.90
2022-08-10T10:39:08.112Z,50.60
2022-08-10T10:40:07.770Z,51.19
2022-08-10T10:41:07.806Z,50.60
2022-08-10T10:42:14.754Z,50.90
2022-08-10T10:43:07.867Z,51.19
2022-08-10T10:44:07.899Z,51.09
2022-08-10T10:45:07.947Z,51.19
2022-08-10T10:46:08.272Z,51.19
2022-08-10T10:47:08.001Z,50.73
2022-08-10T10:48:08.040Z,51.12
2022-08-10T10:49:08.067Z,51.19
2022-08-10T10:50:08.101Z,50.60
2022-08-10T10:51:10.658Z,51.09
2022-08-10T10:52:08.167Z,51.12
2022-08-10T10:53:08.456Z,51.51
2022-08-10T10:54:08.234Z,51.31
2022-08-10T10:55:08.266Z,51.21
2022-08-10T10:56:14.929Z,51.31
2022-08-10T10:57:08.342Z,51.41
2022-08-10T10:58:08.366Z,51.29
2022-08-10T11:00:08.685Z,51.12
2022-08-10T11:01:08.497Z,51.41
2022-08-10T11:02:08.501Z,50.43
2022-08-10T11:03:08.545Z,51.21
2022-08-10T11:04:08.570Z,51.12
2022-08-10T11:05:08.613Z,51.41
2022-08-10T11:06:09.776Z,51.09
2022-08-10T11:07:09.967Z,51.21
2022-08-10T11:08:08.706Z,51.21
2022-08-10T11:09:09.576Z,51.02
2022-08-10T11:10:32.676Z,51.02
2022-08-10T11:11:13.057Z,50.63
2022-08-10T11:12:08.835Z,51.02
2022-08-10T11:14:24.599Z,51.02
2022-08-10T11:14:26.972Z,51.02
2022-08-10T11:15:08.934Z,51.12
2022-08-10T11:16:08.974Z,51.21
2022-08-10T11:17:09.050Z,51.12
2022-08-10T11:18:09.035Z,51.12
2022-08-10T11:20:09.393Z,51.12
2022-08-10T11:21:09.141Z,51.12
2022-08-10T11:22:12.338Z,51.02
2022-08-10T11:23:09.202Z,50.63
2022-08-10T11:24:46.893Z,51.21
2022-08-10T11:25:09.271Z,50.92
2022-08-10T11:26:09.550Z,50.82
2022-08-10T11:27:09.335Z,50.63
2022-08-10T11:28:09.366Z,50.92
2022-08-10T11:29:09.404Z,51.21
2022-08-10T11:30:09.451Z,51.21
2022-08-10T11:31:09.466Z,50.82
2022-08-10T11:32:09.757Z,50.73
2022-08-10T11:33:09.535Z,50.92
2022-08-10T11:34:48.401Z,50.92
2022-08-10T11:35:11.728Z,50.92
2022-08-10T11:36:09.638Z,50.63
2022-08-10T11:37:09.670Z,50.73
2022-08-10T11:38:30.390Z,50.82
2022-08-10T11:39:16.864Z,50.73
2022-08-10T11:40:09.926Z,50.82
2022-08-10T11:42:06.499Z,50.63
2022-08-10T11:42:18.507Z,50.92
2022-08-10T11:43:09.871Z,50.82
2022-08-10T11:44:10.199Z,50.73
2022-08-10T11:45:09.937Z,50.92
2022-08-10T11:46:09.965Z,50.63
2022-08-10T11:47:10.010Z,50.82
2022-08-10T11:48:10.034Z,50.92
2022-08-10T11:49:10.066Z,50.82
2022-08-10T11:50:10.110Z,50.73
2022-08-10T11:51:10.389Z,50.73
2022-08-10T11:52:10.168Z,50.82
2022-08-10T11:53:10.200Z,50.63
2022-08-10T11:54:10.251Z,50.63
2022-08-10T11:55:10.268Z,50.63
2022-08-10T11:56:11.134Z,50.82
2022-08-10T11:57:10.338Z,50.73
2022-08-10T11:58:10.621Z,50.53
2022-08-10T11:59:17.000Z,50.82
2022-08-10T12:00:10.535Z,50.53
2022-08-10T12:01:10.476Z,50.92
2022-08-10T12:02:10.523Z,50.73
2022-08-10T12:03:10.659Z,50.73
2022-08-10T12:04:12.090Z,50.63
2022-08-10T12:05:10.959Z,50.92
2022-08-10T12:06:10.636Z,50.73
2022-08-10T12:10:04.020Z,50.73
2022-08-10T12:10:07.419Z,50.63
2022-08-10T12:10:09.525Z,50.92
2022-08-10T12:10:13.848Z,50.63
2022-08-10T12:11:10.807Z,50.82
2022-08-10T12:12:11.136Z,50.82
2022-08-10T12:13:10.873Z,50.63
2022-08-10T12:14:21.514Z,51.02
2022-08-10T12:15:10.940Z,50.92
2022-08-10T12:16:10.972Z,50.82
2022-08-10T12:17:11.005Z,50.82
2022-08-10T12:18:11.037Z,50.92
2022-08-10T12:19:11.375Z,50.73
2022-08-10T12:20:11.104Z,50.63
2022-08-10T12:21:11.137Z,50.63
2022-08-10T12:22:11.170Z,50.63
2022-08-10T12:23:11.315Z,50.92
2022-08-10T12:25:11.548Z,50.73
2022-08-10T12:26:11.307Z,50.73
2022-08-10T12:27:13.104Z,50.73
2022-08-10T12:28:11.377Z,50.73
2022-08-10T12:29:11.404Z,50.53
2022-08-10T12:30:11.447Z,50.63
2022-08-10T12:31:11.473Z,50.63
2022-08-10T12:32:11.810Z,50.63
2022-08-10T12:33:11.540Z,50.92
2022-08-10T12:34:11.578Z,50.95
2022-08-10T12:35:11.612Z,50.53
2022-08-10T12:36:18.986Z,50.73
2022-08-10T12:37:11.682Z,50.73
2022-08-10T12:38:11.961Z,50.75
2022-08-10T12:39:11.842Z,50.85
2022-08-10T12:40:34.366Z,50.92
2022-08-10T12:41:11.810Z,50.73
2022-08-10T12:42:11.846Z,50.85
2022-08-10T12:44:03.785Z,50.73
2022-08-10T12:44:12.029Z,50.82
2022-08-10T12:45:11.941Z,50.73
2022-08-10T12:46:11.986Z,50.63
2022-08-10T12:47:14.542Z,50.34
2022-08-10T12:48:12.045Z,50.75
2022-08-10T12:49:12.077Z,50.82
2022-08-10T12:50:13.655Z,50.43
2022-08-10T12:51:12.150Z,50.73
2022-08-10T12:52:12.182Z,50.46
2022-08-10T12:53:12.215Z,50.63
2022-08-10T12:54:12.250Z,50.85
2022-08-10T12:55:12.281Z,50.36
2022-08-10T12:56:12.315Z,50.46
2022-08-10T12:57:12.652Z,50.46
2022-08-10T12:58:59.421Z,50.63
2022-08-10T12:59:12.415Z,50.65
2022-08-10T13:00:17.374Z,50.36
2022-08-10T13:01:16.474Z,50.75
2022-08-10T13:02:12.534Z,50.56
2022-08-10T13:03:12.546Z,50.95
2022-08-10T13:04:21.570Z,50.56
2022-08-10T13:05:12.613Z,50.65
2022-08-10T13:06:12.653Z,50.85
2022-08-10T13:08:24.812Z,50.36
2022-08-10T13:08:26.596Z,50.65
2022-08-10T13:10:13.034Z,50.75
2022-08-10T13:11:24.426Z,50.65
2022-08-10T13:12:36.970Z,50.56
2022-08-10T13:13:12.888Z,50.65
2022-08-10T13:14:13.227Z,50.75
2022-08-10T13:16:12.990Z,50.75
2022-08-10T13:17:13.325Z,50.56
2022-08-10T13:18:18.733Z,50.56
2022-08-10T13:19:13.087Z,50.46
2022-08-10T13:20:14.034Z,50.75
2022-08-10T13:21:20.765Z,50.46
2022-08-10T13:22:13.201Z,50.46
2022-08-10T13:23:13.224Z,50.26
2022-08-10T13:24:13.560Z,50.26
2022-08-10T13:25:13.291Z,50.46
2022-08-10T13:26:13.325Z,50.46
2022-08-10T13:27:25.992Z,50.36
2022-08-10T13:28:36.339Z,50.56
2022-08-10T13:29:13.437Z,50.26
2022-08-10T13:30:13.463Z,50.46
2022-08-10T13:31:16.314Z,50.56
2022-08-10T13:32:13.530Z,50.56
2022-08-10T13:33:13.561Z,50.75
2022-08-10T13:34:43.895Z,50.75
2022-08-10T13:35:13.635Z,50.36
2022-08-10T13:36:13.670Z,50.75
2022-08-10T13:37:13.702Z,50.68